createdAt,value
2023-12-23T00:00:10.889Z,97656.88
2023-12-23T00:02:37.908Z,97681.19
2023-12-23T00:05:05.403Z,97675.75
2023-12-23T00:07:32.405Z,97691.63
2023-12-23T00:09:59.444Z,97687.41
2023-12-23T00:12:26.529Z,97686.00
2023-12-23T00:14:53.529Z,97706.06
2023-12-23T00:17:20.665Z,97705.84
2023-12-23T00:19:48.022Z,97726.94
2023-12-23T00:22:15.108Z,97728.72
2023-12-23T00:24:42.097Z,97728.13
2023-12-23T00:27:09.120Z,97738.13
2023-12-23T00:29:36.402Z,97733.13
2023-12-23T00:32:03.602Z,97734.13
2023-12-23T00:34:30.700Z,97728.50
2023-12-23T00:36:57.771Z,97730.34
2023-12-23T00:39:24.845Z,97724.09
2023-12-23T00:41:51.830Z,97733.94
2023-12-23T00:44:18.913Z,97741.53
2023-12-23T00:46:45.939Z,97739.13
2023-12-23T00:49:13.059Z,97741.75
2023-12-23T00:51:40.173Z,97737.09
2023-12-23T00:54:07.247Z,97754.72
2023-12-23T00:56:34.378Z,97746.97
2023-12-23T00:59:02.010Z,97752.97
2023-12-23T01:01:29.017Z,97759.38
2023-12-23T01:03:56.066Z,97752.75
2023-12-23T01:06:23.514Z,97758.19
2023-12-23T01:08:50.671Z,97767.81
2023-12-23T01:11:17.748Z,97770.00
2023-12-23T01:13:45.082Z,97780.56
2023-12-23T01:16:12.202Z,97793.59
2023-12-23T01:18:39.566Z,97783.50
2023-12-23T01:21:09.659Z,97784.25
2023-12-23T01:23:36.951Z,97780.66
2023-12-23T01:26:04.246Z,97779.41
2023-12-23T01:28:31.514Z,97796.31
2023-12-23T01:30:58.687Z,97781.47
2023-12-23T01:33:25.852Z,97793.72
2023-12-23T01:35:53.100Z,97783.66
2023-12-23T01:38:20.184Z,97800.53
2023-12-23T01:40:47.329Z,97801.50
2023-12-23T01:43:14.820Z,97808.94
2023-12-23T01:45:42.032Z,97802.94
2023-12-23T01:48:11.819Z,97804.41
2023-12-23T01:50:39.560Z,97804.56
2023-12-23T01:53:06.849Z,97818.25
2023-12-23T01:55:35.583Z,97840.28
2023-12-23T01:58:02.750Z,97804.56
2023-12-23T02:00:29.985Z,97815.56
2023-12-23T02:02:58.303Z,97808.63
2023-12-23T02:05:25.748Z,97812.38
2023-12-23T02:07:54.094Z,97810.75
2023-12-23T02:10:21.972Z,97803.75
2023-12-23T02:13:12.636Z,97815.03
2023-12-23T02:15:45.058Z,97813.84
2023-12-23T02:18:12.407Z,97817.22
2023-12-23T02:20:39.518Z,97811.84
2023-12-23T02:23:06.714Z,97807.81
2023-12-23T02:25:33.945Z,97819.13
2023-12-23T02:28:07.508Z,97820.69
2023-12-23T02:30:39.733Z,97817.88
2023-12-23T02:33:07.864Z,97826.31
2023-12-23T02:35:35.112Z,97813.44
2023-12-23T02:38:02.340Z,97825.69
2023-12-23T02:40:29.565Z,97834.13
2023-12-23T02:42:56.644Z,97842.91
2023-12-23T02:45:24.271Z,97828.66
2023-12-23T02:47:51.571Z,97828.31
2023-12-23T02:50:18.805Z,97839.91
2023-12-23T02:52:46.002Z,97843.72
2023-12-23T02:55:13.166Z,97843.34
2023-12-23T02:57:40.228Z,97856.56
2023-12-23T03:00:08.241Z,97848.19
2023-12-23T03:02:36.713Z,97841.72
2023-12-23T03:05:03.999Z,97848.56
2023-12-23T03:07:32.814Z,97859.66
2023-12-23T03:09:59.902Z,97849.75
2023-12-23T03:12:26.943Z,97840.91
2023-12-23T03:14:54.338Z,97844.75
2023-12-23T03:17:21.684Z,97852.84
2023-12-23T03:19:49.070Z,97852.44
2023-12-23T03:22:16.434Z,97851.41
2023-12-23T03:24:43.837Z,97855.88
2023-12-23T03:27:10.906Z,97853.56
2023-12-23T03:29:37.936Z,97856.16
2023-12-23T03:32:05.585Z,97850.94
2023-12-23T03:34:32.641Z,97840.47
2023-12-23T03:36:59.677Z,97849.94
2023-12-23T03:39:26.664Z,97843.13
2023-12-23T03:41:53.718Z,97828.44
2023-12-23T03:44:21.209Z,97845.13
2023-12-23T03:46:48.347Z,97861.00
2023-12-23T03:49:15.521Z,97850.97
2023-12-23T03:51:42.810Z,97864.97
2023-12-23T03:54:09.980Z,97855.34
2023-12-23T03:56:37.021Z,97876.44
2023-12-23T03:59:04.101Z,97861.16
2023-12-23T04:01:31.187Z,97849.03
2023-12-23T04:03:58.365Z,97855.00
2023-12-23T04:06:28.363Z,97829.81
2023-12-23T04:08:56.599Z,97833.81
2023-12-23T04:11:23.761Z,97850.66
2023-12-23T04:13:50.806Z,97847.47
2023-12-23T04:16:17.899Z,97846.28
2023-12-23T04:18:45.232Z,97849.84
2023-12-23T04:21:12.307Z,97834.84
2023-12-23T04:23:40.194Z,97836.06
2023-12-23T04:26:08.100Z,97836.28
2023-12-23T04:28:35.400Z,97838.06
2023-12-23T04:31:02.526Z,97843.53
2023-12-23T04:33:30.963Z,97832.31
2023-12-23T04:35:58.128Z,97832.91
2023-12-23T04:38:25.338Z,97839.69
2023-12-23T04:40:52.390Z,97838.94
2023-12-23T04:43:19.596Z,97834.09
2023-12-23T04:45:46.777Z,97840.34
2023-12-23T04:48:13.914Z,97834.31
2023-12-23T04:50:41.309Z,97845.94
2023-12-23T04:53:08.415Z,97846.34
2023-12-23T04:55:35.895Z,97850.28
2023-12-23T04:58:02.984Z,97848.03
2023-12-23T05:00:30.086Z,97851.63
2023-12-23T05:02:57.176Z,97848.88
2023-12-23T05:05:24.349Z,97854.47
2023-12-23T05:07:54.243Z,97836.59
2023-12-23T05:10:22.000Z,97837.13
2023-12-23T05:12:49.260Z,97839.09
2023-12-23T05:15:16.456Z,97848.56
2023-12-23T05:17:43.797Z,97846.81
2023-12-23T05:20:12.202Z,97845.81
2023-12-23T05:22:39.558Z,97847.16
2023-12-23T05:25:06.938Z,97846.81
2023-12-23T05:27:34.972Z,97844.97
2023-12-23T05:30:02.176Z,97828.91
2023-12-23T05:32:32.307Z,97838.81
2023-12-23T05:34:59.844Z,97835.56
2023-12-23T05:37:27.232Z,97845.56
2023-12-23T05:39:56.679Z,97846.81
2023-12-23T05:42:25.335Z,97841.59
2023-12-23T05:44:52.870Z,97837.09
2023-12-23T05:47:20.154Z,97841.13
2023-12-23T05:49:47.380Z,97846.34
2023-12-23T05:52:14.425Z,97845.56
2023-12-23T05:54:41.461Z,97844.91
2023-12-23T05:57:08.472Z,97846.66
2023-12-23T05:59:35.736Z,97846.66
2023-12-23T06:02:02.781Z,97848.03
2023-12-23T06:04:29.803Z,97839.22
2023-12-23T06:06:56.872Z,97846.56
2023-12-23T06:09:24.004Z,97829.91
2023-12-23T06:11:51.155Z,97841.75
2023-12-23T06:14:18.524Z,97827.28
2023-12-23T06:16:45.566Z,97825.50
2023-12-23T06:19:12.726Z,97825.13
2023-12-23T06:21:46.590Z,97836.53
2023-12-23T06:24:16.938Z,97822.16
2023-12-23T06:26:46.061Z,97826.97
2023-12-23T06:29:13.593Z,97825.78
2023-12-23T06:31:40.734Z,97832.63
2023-12-23T06:34:07.980Z,97809.75
2023-12-23T06:36:35.104Z,97815.19
2023-12-23T06:39:02.284Z,97827.22
2023-12-23T06:41:29.397Z,97814.00
2023-12-23T06:43:56.555Z,97817.22
2023-12-23T06:46:23.895Z,97813.78
2023-12-23T06:48:53.206Z,97822.59
2023-12-23T06:51:20.372Z,97813.97
2023-12-23T06:53:49.565Z,97811.94
2023-12-23T06:56:17.080Z,97803.34
2023-12-23T06:58:44.937Z,97799.66
2023-12-23T07:01:11.983Z,97800.91
2023-12-23T07:03:39.082Z,97808.91
2023-12-23T07:06:07.245Z,97814.53
2023-12-23T07:08:35.425Z,97806.13
2023-12-23T07:11:03.679Z,97811.34
2023-12-23T07:13:30.771Z,97807.69
2023-12-23T07:15:57.853Z,97823.13
2023-12-23T07:18:24.970Z,97808.13
2023-12-23T07:20:52.425Z,97814.16
2023-12-23T07:23:19.545Z,97812.91
2023-12-23T07:25:46.699Z,97812.09
2023-12-23T07:28:13.799Z,97818.78
2023-12-23T07:30:46.044Z,97807.72
2023-12-23T07:33:14.707Z,97815.97
2023-12-23T07:35:42.046Z,97810.16
2023-12-23T07:38:09.733Z,61630.53
2023-12-23T07:40:37.214Z,61630.53
2023-12-23T07:43:04.419Z,61630.53
2023-12-23T07:45:32.619Z,61630.53
2023-12-23T07:48:02.844Z,61630.53
2023-12-23T07:50:30.276Z,61630.53
2023-12-23T07:52:57.480Z,61630.53
2023-12-23T07:55:25.863Z,61630.53
2023-12-23T07:57:53.210Z,61630.53
2023-12-23T08:00:20.778Z,61630.53
2023-12-23T08:03:21.494Z,97831.38
2023-12-23T08:05:48.661Z,97834.16
2023-12-23T08:08:15.760Z,97834.84
2023-12-23T08:10:42.765Z,97849.06
2023-12-23T08:13:09.704Z,97835.00
2023-12-23T08:15:36.700Z,97849.06
2023-12-23T08:18:04.005Z,97843.28
2023-12-23T08:20:31.201Z,97841.47
2023-12-23T08:22:58.310Z,97849.06
2023-12-23T08:25:25.550Z,97841.63
2023-12-23T08:27:53.098Z,97831.81
2023-12-23T08:30:21.224Z,97833.44
2023-12-23T08:32:48.460Z,97839.44
2023-12-23T08:35:16.767Z,97827.03
2023-12-23T08:37:43.769Z,97834.88
2023-12-23T08:40:11.776Z,97855.88
2023-12-23T08:42:38.721Z,97838.66
2023-12-23T08:45:06.570Z,97843.28
2023-12-23T08:47:33.571Z,97846.28
2023-12-23T08:50:00.634Z,97835.88
2023-12-23T08:52:28.776Z,97839.06
2023-12-23T08:54:55.732Z,97845.22
2023-12-23T08:57:22.726Z,97841.44
2023-12-23T08:59:50.111Z,97837.69
2023-12-23T09:02:17.291Z,97838.81
2023-12-23T09:04:44.351Z,97841.50
2023-12-23T09:07:11.524Z,97824.44
2023-12-23T09:09:41.809Z,97827.94
2023-12-23T09:12:09.496Z,97819.81
2023-12-23T09:14:36.523Z,97834.50
2023-12-23T09:17:03.692Z,97839.47
2023-12-23T09:19:30.732Z,97845.94
2023-12-23T09:21:57.689Z,97843.72
2023-12-23T09:24:24.639Z,97843.59
2023-12-23T09:26:51.559Z,97850.03
2023-12-23T09:29:18.770Z,97858.25
2023-12-23T09:31:45.730Z,97859.50
2023-12-23T09:34:12.789Z,61630.53
2023-12-23T09:36:40.178Z,61630.53
2023-12-23T09:39:07.118Z,61630.53
2023-12-23T09:41:34.188Z,61630.53
2023-12-23T09:44:01.800Z,61630.53
2023-12-23T09:46:28.929Z,61630.53
2023-12-23T09:48:55.954Z,61630.53
2023-12-23T09:51:27.193Z,61630.53
2023-12-23T09:53:59.625Z,61630.53
2023-12-23T09:56:30.786Z,61630.53
2023-12-23T09:58:58.481Z,61630.53
2023-12-23T10:03:16.536Z,97879.34
2023-12-23T10:05:44.262Z,97878.53
2023-12-23T10:08:11.341Z,97876.13
2023-12-23T10:10:38.358Z,97882.84
2023-12-23T10:13:05.411Z,97886.78
2023-12-23T10:15:32.381Z,97896.78
2023-12-23T10:18:04.640Z,97888.41
2023-12-23T10:20:33.399Z,97898.06
2023-12-23T10:23:00.542Z,97888.22
2023-12-23T10:25:27.524Z,97893.03
2023-12-23T10:27:59.797Z,97894.03
2023-12-23T10:30:29.878Z,97873.78
2023-12-23T10:33:05.440Z,97884.66
2023-12-23T10:35:43.327Z,97885.38
2023-12-23T10:38:11.634Z,97898.25
2023-12-23T10:40:39.835Z,97891.47
2023-12-23T10:43:09.738Z,97901.09
2023-12-23T10:45:38.751Z,97886.19
2023-12-23T10:48:08.522Z,97884.16
2023-12-23T10:50:36.595Z,97883.53
2023-12-23T10:53:03.974Z,97892.06
2023-12-23T10:55:32.012Z,97874.28
2023-12-23T10:57:59.811Z,97884.63
2023-12-23T11:00:26.845Z,97870.94
2023-12-23T11:02:59.529Z,97899.06
2023-12-23T11:05:27.968Z,97886.19
2023-12-23T11:08:01.809Z,97898.88
2023-12-23T11:10:37.052Z,97893.22
2023-12-23T11:13:04.348Z,97895.44
2023-12-23T11:15:31.402Z,97909.06
2023-12-23T11:17:58.873Z,97899.09
2023-12-23T11:20:46.289Z,97895.03
2023-12-23T11:23:31.825Z,97871.13
2023-12-23T11:25:59.252Z,97880.59
2023-12-23T11:28:28.803Z,97892.09
2023-12-23T11:30:59.020Z,97881.25
2023-12-23T11:33:33.676Z,97888.03
2023-12-23T11:36:02.907Z,97868.22
2023-12-23T11:38:51.684Z,97869.78
2023-12-23T11:41:20.109Z,97881.38
2023-12-23T11:43:49.954Z,97867.56
2023-12-23T11:46:19.493Z,97881.41
2023-12-23T11:48:46.639Z,97893.47
2023-12-23T11:51:14.238Z,97900.69
2023-12-23T11:53:42.294Z,97900.09
2023-12-23T11:56:10.832Z,97892.00
2023-12-23T11:58:38.724Z,97919.72
2023-12-23T12:01:05.909Z,97908.09
2023-12-23T12:03:33.270Z,97894.34
2023-12-23T12:06:03.817Z,97885.16
2023-12-23T12:08:31.841Z,97879.78
2023-12-23T12:11:02.120Z,97891.41
2023-12-23T12:13:38.558Z,97903.09
2023-12-23T12:16:06.691Z,97908.56
2023-12-23T12:18:33.820Z,97907.00
2023-12-23T12:21:02.189Z,97912.66
2023-12-23T12:23:29.745Z,97907.38
2023-12-23T12:25:58.968Z,97907.44
2023-12-23T12:28:27.491Z,97901.41
2023-12-23T12:30:55.511Z,97888.97
2023-12-23T12:33:22.750Z,97894.91
2023-12-23T12:35:49.896Z,97893.38
2023-12-23T12:38:23.179Z,97914.47
2023-12-23T12:40:53.018Z,97906.31
2023-12-23T12:43:23.497Z,97922.53
2023-12-23T12:45:50.973Z,97916.78
2023-12-23T12:48:18.185Z,97909.22
2023-12-23T12:50:45.846Z,97920.69
2023-12-23T12:53:16.837Z,97918.69
2023-12-23T12:55:44.182Z,97921.63
2023-12-23T12:58:11.312Z,97931.06
2023-12-23T13:00:38.913Z,97929.19
2023-12-23T13:03:06.833Z,97934.38
2023-12-23T13:05:34.103Z,97926.63
2023-12-23T13:08:01.507Z,97915.22
2023-12-23T13:10:29.678Z,97918.03
2023-12-23T13:12:56.883Z,97936.28
2023-12-23T13:15:23.953Z,97919.34
2023-12-23T13:17:51.200Z,97913.75
2023-12-23T13:20:18.460Z,97914.72
2023-12-23T13:22:48.625Z,97916.16
2023-12-23T13:25:16.280Z,97918.97
2023-12-23T13:27:43.504Z,97932.16
2023-12-23T13:30:11.352Z,97915.75
2023-12-23T13:32:38.535Z,97928.13
2023-12-23T13:35:06.047Z,97934.97
2023-12-23T13:37:33.212Z,97918.22
2023-12-23T13:40:00.946Z,97929.81
2023-12-23T13:42:28.075Z,97919.28
2023-12-23T13:44:55.217Z,97930.84
2023-12-23T13:47:22.494Z,97943.84
2023-12-23T13:49:49.738Z,97941.00
2023-12-23T13:52:17.501Z,97928.94
2023-12-23T13:54:44.804Z,97938.78
2023-12-23T13:57:11.923Z,97952.91
2023-12-23T13:59:38.992Z,97941.50
2023-12-23T14:02:09.067Z,97945.31
2023-12-23T14:04:40.621Z,97967.34
2023-12-23T14:07:08.254Z,97957.38
2023-12-23T14:09:35.340Z,97963.34
2023-12-23T14:12:02.392Z,97957.91
2023-12-23T14:14:29.803Z,97953.56
2023-12-23T14:16:57.316Z,97957.53
2023-12-23T14:19:24.657Z,97957.47
2023-12-23T14:21:51.790Z,97971.00
2023-12-23T14:24:19.091Z,97964.06
2023-12-23T14:26:46.429Z,97963.81
2023-12-23T14:29:13.527Z,97976.69
2023-12-23T14:31:40.872Z,97973.59
2023-12-23T14:34:07.996Z,97990.09
2023-12-23T14:36:35.148Z,97991.84
2023-12-23T14:39:03.608Z,97993.94
2023-12-23T14:41:31.095Z,97967.56
2023-12-23T14:43:58.223Z,97987.00
2023-12-23T14:46:25.686Z,97999.56
2023-12-23T14:48:52.785Z,97997.53
2023-12-23T14:51:21.614Z,98005.59
2023-12-23T14:53:48.843Z,97999.69
2023-12-23T14:56:16.049Z,98008.59
2023-12-23T14:58:43.233Z,97995.28
2023-12-23T15:01:10.414Z,97997.56
2023-12-23T15:03:37.963Z,98005.25
2023-12-23T15:06:06.071Z,98002.13
2023-12-23T15:08:33.319Z,98006.63
2023-12-23T15:11:00.553Z,98016.41
2023-12-23T15:13:27.750Z,97998.28
2023-12-23T15:15:55.043Z,98012.44
2023-12-23T15:18:22.246Z,98021.34
2023-12-23T15:20:49.413Z,98022.88
2023-12-23T15:23:16.798Z,98024.75
2023-12-23T15:25:43.797Z,98013.31
2023-12-23T15:28:11.543Z,98013.63
2023-12-23T15:30:39.801Z,98017.41
2023-12-23T15:33:09.928Z,98017.19
2023-12-23T15:35:37.076Z,98030.75
2023-12-23T15:38:04.290Z,98050.31
2023-12-23T15:40:31.328Z,98037.47
2023-12-23T15:43:06.078Z,98055.03
2023-12-23T15:45:34.417Z,98050.88
2023-12-23T15:48:01.606Z,98040.91
2023-12-23T15:50:28.713Z,98040.25
2023-12-23T15:52:56.043Z,98043.25
2023-12-23T15:55:23.319Z,98039.50
2023-12-23T15:57:50.507Z,98032.19
2023-12-23T16:00:18.016Z,98038.66
2023-12-23T16:02:45.412Z,98035.81
2023-12-23T16:05:12.602Z,98039.03
2023-12-23T16:07:39.715Z,98036.78
2023-12-23T16:10:07.333Z,98035.59
2023-12-23T16:12:34.630Z,98045.19
2023-12-23T16:15:01.692Z,98042.69
2023-12-23T16:17:28.864Z,98062.34
2023-12-23T16:19:56.447Z,98056.53
2023-12-23T16:22:23.540Z,98067.47
2023-12-23T16:24:50.616Z,98057.97
2023-12-23T16:27:19.405Z,98067.09
2023-12-23T16:29:46.815Z,98059.97
2023-12-23T16:32:14.124Z,98055.00
2023-12-23T16:34:41.647Z,98058.69
2023-12-23T16:37:08.735Z,98055.75
2023-12-23T16:39:35.795Z,98065.03
2023-12-23T16:42:05.049Z,98082.84
2023-12-23T16:44:32.864Z,98082.03
2023-12-23T16:47:00.060Z,98107.06
2023-12-23T16:49:41.179Z,98092.41
2023-12-23T16:52:16.435Z,98112.84
2023-12-23T16:54:45.569Z,98105.00
2023-12-23T16:57:33.608Z,98092.81
2023-12-23T17:00:00.956Z,98094.16
2023-12-23T17:02:28.005Z,98101.38
2023-12-23T17:04:55.164Z,98087.00
2023-12-23T17:07:22.203Z,98092.50
2023-12-23T17:09:49.390Z,98084.13
2023-12-23T17:12:16.896Z,98088.41
2023-12-23T17:14:44.191Z,98094.16
2023-12-23T17:17:11.228Z,98104.81
2023-12-23T17:19:38.512Z,98102.16
2023-12-23T17:22:05.767Z,98099.56
2023-12-23T17:24:32.896Z,98104.22
2023-12-23T17:27:01.719Z,98121.50
2023-12-23T17:29:29.181Z,61630.53
2023-12-23T17:31:57.129Z,61630.53
2023-12-23T17:34:24.388Z,61630.53
2023-12-23T17:36:51.673Z,61630.53
2023-12-23T17:39:21.947Z,61630.53
2023-12-23T17:41:49.507Z,61630.53
2023-12-23T17:44:16.708Z,61630.53
2023-12-23T17:46:44.171Z,61630.53
2023-12-23T17:49:11.421Z,61630.53
2023-12-23T17:51:38.478Z,61630.53
2023-12-23T17:54:05.798Z,61630.53
2023-12-23T17:56:32.836Z,61630.53
2023-12-23T17:58:59.874Z,61630.53
2023-12-23T18:03:12.184Z,98121.44
2023-12-23T18:05:39.479Z,98120.09
2023-12-23T18:08:06.917Z,98132.38
2023-12-23T18:10:34.333Z,98139.22
2023-12-23T18:13:03.775Z,98130.91
2023-12-23T18:15:31.099Z,98140.25
2023-12-23T18:17:58.663Z,98129.31
2023-12-23T18:20:26.219Z,98133.66
2023-12-23T18:22:53.826Z,98138.94
2023-12-23T18:25:21.182Z,98138.13
2023-12-23T18:27:48.584Z,98142.53
2023-12-23T18:30:15.861Z,98144.56
2023-12-23T18:32:43.302Z,98145.13
2023-12-23T18:35:10.790Z,61630.53
2023-12-23T18:37:38.152Z,61630.53
2023-12-23T18:40:08.509Z,61630.53
2023-12-23T18:42:35.702Z,61630.53
2023-12-23T18:45:03.349Z,61630.53
2023-12-23T18:47:30.530Z,61630.53
2023-12-23T18:49:57.830Z,61630.53
2023-12-23T18:52:24.989Z,61630.53
2023-12-23T18:54:52.392Z,61630.53
2023-12-23T18:57:19.621Z,61630.53
2023-12-23T18:59:47.029Z,61630.53
2023-12-23T19:02:56.844Z,98163.56
2023-12-23T19:05:23.961Z,98161.38
2023-12-23T19:07:51.725Z,98166.06
2023-12-23T19:10:18.736Z,98169.28
2023-12-23T19:12:45.670Z,98172.50
2023-12-23T19:15:12.792Z,98166.47
2023-12-23T19:17:44.105Z,98164.44
2023-12-23T19:20:12.210Z,98164.06
2023-12-23T19:22:39.440Z,98154.75
2023-12-23T19:25:08.097Z,98153.03
2023-12-23T19:27:35.174Z,98155.00
2023-12-23T19:30:04.494Z,98162.59
2023-12-23T19:32:31.598Z,98173.78
2023-12-23T19:34:58.693Z,98188.50
2023-12-23T19:37:25.694Z,98167.25
2023-12-23T19:39:59.761Z,98170.97
2023-12-23T19:42:33.550Z,98176.06
2023-12-23T19:45:00.534Z,98173.91
2023-12-23T19:47:27.674Z,98172.09
2023-12-23T19:49:54.802Z,98169.66
2023-12-23T19:52:21.857Z,98172.28
2023-12-23T19:54:48.832Z,98166.31
2023-12-23T19:57:16.482Z,98172.47
2023-12-23T19:59:43.472Z,98166.38
2023-12-23T20:02:10.443Z,98170.97
2023-12-23T20:04:38.058Z,98176.75
2023-12-23T20:07:05.371Z,98175.72
2023-12-23T20:09:32.337Z,98168.28
2023-12-23T20:11:59.594Z,98179.09
2023-12-23T20:14:26.892Z,98172.41
2023-12-23T20:16:53.907Z,98175.88
2023-12-23T20:19:21.092Z,98173.09
2023-12-23T20:21:48.101Z,98159.00
2023-12-23T20:24:18.238Z,98166.63
2023-12-23T20:26:45.262Z,98165.44
2023-12-23T20:29:12.806Z,98169.53
2023-12-23T20:31:39.818Z,98166.56
2023-12-23T20:34:08.162Z,98173.69
2023-12-23T20:36:44.194Z,98175.25
2023-12-23T20:39:11.253Z,98182.50
2023-12-23T20:41:42.264Z,98195.13
2023-12-23T20:44:09.661Z,98185.69
2023-12-23T20:46:36.688Z,98178.47
2023-12-23T20:49:04.836Z,98174.25
2023-12-23T20:51:31.916Z,98177.81
2023-12-23T20:53:59.526Z,98169.66
2023-12-23T20:56:26.963Z,61630.53
2023-12-23T20:58:54.406Z,61630.53
2023-12-23T21:01:24.261Z,61630.53
2023-12-23T21:03:56.101Z,61630.53
2023-12-23T21:06:24.047Z,61630.53
2023-12-23T21:08:51.104Z,61630.53
2023-12-23T21:11:19.560Z,61630.53
2023-12-23T21:13:47.653Z,61630.53
2023-12-23T21:16:14.952Z,61630.53
2023-12-23T21:18:45.722Z,61630.53
2023-12-23T21:21:13.514Z,61630.53
2023-12-23T21:23:41.559Z,61630.53
2023-12-23T21:26:21.162Z,61630.53
2023-12-23T21:28:48.583Z,61630.53
2023-12-23T21:31:16.188Z,61630.53
2023-12-23T21:33:43.230Z,61630.53
2023-12-23T21:36:10.619Z,61630.53
2023-12-23T21:38:37.685Z,61630.53
2023-12-23T21:41:04.854Z,61630.53
2023-12-23T21:43:31.821Z,61630.53
2023-12-23T21:45:58.811Z,61630.53
2023-12-23T21:48:25.917Z,61630.53
2023-12-23T21:50:55.058Z,61630.53
2023-12-23T21:53:25.555Z,61630.53
2023-12-23T21:55:55.900Z,61630.53
2023-12-23T21:58:23.002Z,61630.53
2023-12-23T22:00:50.102Z,61630.53
2023-12-23T22:03:29.760Z,98176.34
2023-12-23T22:05:57.113Z,98169.16
2023-12-23T22:08:24.210Z,98174.63
2023-12-23T22:10:51.222Z,98178.16
2023-12-23T22:13:18.736Z,98164.91
2023-12-23T22:15:45.635Z,98170.09
2023-12-23T22:18:12.721Z,98162.69
2023-12-23T22:20:39.824Z,98171.09
2023-12-23T22:23:06.899Z,98170.75
2023-12-23T22:25:33.850Z,98183.19
2023-12-23T22:28:00.893Z,98176.22
2023-12-23T22:30:27.897Z,61630.53
2023-12-23T22:32:55.224Z,61630.53
2023-12-23T22:35:22.584Z,61630.53
2023-12-23T22:37:49.568Z,61630.53
2023-12-23T22:40:17.026Z,61630.53
2023-12-23T22:42:44.114Z,61630.53
2023-12-23T22:45:13.067Z,61630.53
2023-12-23T22:47:40.120Z,61630.53
2023-12-23T22:50:08.098Z,61630.53
2023-12-23T22:52:35.069Z,61630.53
2023-12-23T22:55:02.413Z,61630.53
2023-12-23T22:57:29.832Z,61630.53
2023-12-23T22:59:56.984Z,61630.53
2023-12-23T23:03:18.222Z,98169.56
2023-12-23T23:05:45.549Z,98166.38
2023-12-23T23:08:12.725Z,98171.09
2023-12-23T23:10:39.737Z,98162.88
2023-12-23T23:13:07.789Z,98160.88
2023-12-23T23:15:34.733Z,98161.88
2023-12-23T23:18:01.952Z,98160.63
2023-12-23T23:20:29.057Z,98173.91
2023-12-23T23:22:56.211Z,98165.63
2023-12-23T23:25:23.200Z,98158.81
2023-12-23T23:27:50.112Z,98173.06
2023-12-23T23:30:17.382Z,98170.63
2023-12-23T23:32:44.840Z,98168.78
2023-12-23T23:35:12.596Z,98171.19
2023-12-23T23:37:39.842Z,98174.41
2023-12-23T23:40:07.783Z,98188.50
2023-12-23T23:42:34.765Z,98182.44
2023-12-23T23:45:01.738Z,98189.09
2023-12-23T23:47:29.589Z,98197.97
2023-12-23T23:49:56.789Z,98200.88
2023-12-23T23:52:23.791Z,98188.66
2023-12-23T23:54:50.758Z,98183.91
2023-12-23T23:57:17.889Z,98187.09
2023-12-23T23:59:45.133Z,98181.34
